sensor_id;sensor_type;location;lat;lon;timestamp;pressure;altitude;pressure_sealevel;temperature;humidity
52935;BME280;38802;50.198;19.796;2022-09-30T00:01:40;95458.48;;;7.46;87.58
52935;BME280;38802;50.198;19.796;2022-09-30T00:04:12;95456.67;;;7.47;87.66
52935;BME280;38802;50.198;19.796;2022-09-30T00:06:40;95455.58;;;7.47;87.68
52935;BME280;38802;50.198;19.796;2022-09-30T00:09:09;95453.11;;;7.48;87.63
52935;BME280;38802;50.198;19.796;2022-09-30T00:11:40;95449.21;;;7.49;87.46
52935;BME280;38802;50.198;19.796;2022-09-30T00:14:12;95446.87;;;7.50;87.77
52935;BME280;38802;50.198;19.796;2022-09-30T00:16:41;95438.98;;;7.51;87.77
52935;BME280;38802;50.198;19.796;2022-09-30T00:19:09;95436.02;;;7.51;87.72
52935;BME280;38802;50.198;19.796;2022-09-30T00:21:37;95433.78;;;7.51;88.07
52935;BME280;38802;50.198;19.796;2022-09-30T00:24:06;95426.58;;;7.51;88.05
52935;BME280;38802;50.198;19.796;2022-09-30T00:26:34;95428.89;;;7.50;88.20
52935;BME280;38802;50.198;19.796;2022-09-30T00:29:03;95422.22;;;7.49;88.12
52935;BME280;38802;50.198;19.796;2022-09-30T00:31:32;95426.83;;;7.48;88.41
52935;BME280;38802;50.198;19.796;2022-09-30T00:34:01;95430.70;;;7.47;88.24
52935;BME280;38802;50.198;19.796;2022-09-30T00:36:42;95423.70;;;7.46;88.48
52935;BME280;38802;50.198;19.796;2022-09-30T00:39:12;95421.83;;;7.46;88.10
52935;BME280;38802;50.198;19.796;2022-09-30T00:41:42;95422.40;;;7.47;88.25
52935;BME280;38802;50.198;19.796;2022-09-30T00:46:57;95430.58;;;7.46;88.47
52935;BME280;38802;50.198;19.796;2022-09-30T00:49:26;95436.83;;;7.46;88.99
52935;BME280;38802;50.198;19.796;2022-09-30T00:51:55;95437.48;;;7.44;88.61
52935;BME280;38802;50.198;19.796;2022-09-30T00:54:25;95429.10;;;7.44;88.97
52935;BME280;38802;50.198;19.796;2022-09-30T00:56:56;95431.39;;;7.43;88.95
52935;BME280;38802;50.198;19.796;2022-09-30T00:59:27;95439.05;;;7.42;88.98
52935;BME280;38802;50.198;19.796;2022-09-30T01:01:56;95440.27;;;7.42;88.59
52935;BME280;38802;50.198;19.796;2022-09-30T01:04:24;95444.07;;;7.42;88.63
52935;BME280;38802;50.198;19.796;2022-09-30T01:06:53;95451.19;;;7.42;88.58
52935;BME280;38802;50.198;19.796;2022-09-30T01:09:22;95453.44;;;7.42;88.75
52935;BME280;38802;50.198;19.796;2022-09-30T01:11:51;95452.08;;;7.41;88.67
52935;BME280;38802;50.198;19.796;2022-09-30T01:14:22;95456.64;;;7.41;88.93
52935;BME280;38802;50.198;19.796;2022-09-30T01:19:59;95454.64;;;7.40;88.69
52935;BME280;38802;50.198;19.796;2022-09-30T01:25:16;95444.95;;;7.40;89.32
52935;BME280;38802;50.198;19.796;2022-09-30T01:35:46;95442.02;;;7.35;89.44
52935;BME280;38802;50.198;19.796;2022-09-30T01:51:36;95460.90;;;7.39;89.36
52935;BME280;38802;50.198;19.796;2022-09-30T01:54:17;95466.40;;;7.39;89.49
52935;BME280;38802;50.198;19.796;2022-09-30T01:56:48;95467.71;;;7.40;89.43
52935;BME280;38802;50.198;19.796;2022-09-30T01:59:32;95471.23;;;7.42;89.44
52935;BME280;38802;50.198;19.796;2022-09-30T02:02:18;95472.95;;;7.42;89.58
52935;BME280;38802;50.198;19.796;2022-09-30T02:04:52;95472.66;;;7.41;89.69
52935;BME280;38802;50.198;19.796;2022-09-30T02:07:27;95468.42;;;7.42;89.69
52935;BME280;38802;50.198;19.796;2022-09-30T02:09:58;95471.63;;;7.43;89.84
52935;BME280;38802;50.198;19.796;2022-09-30T02:12:30;95469.51;;;7.44;89.47
52935;BME280;38802;50.198;19.796;2022-09-30T02:15:02;95473.09;;;7.44;89.83
52935;BME280;38802;50.198;19.796;2022-09-30T02:17:44;95474.43;;;7.45;90.18
52935;BME280;38802;50.198;19.796;2022-09-30T02:20:21;95472.46;;;7.45;89.80
52935;BME280;38802;50.198;19.796;2022-09-30T02:22:53;95470.15;;;7.46;89.59
52935;BME280;38802;50.198;19.796;2022-09-30T02:25:25;95473.70;;;7.47;89.70
52935;BME280;38802;50.198;19.796;2022-09-30T02:28:00;95468.33;;;7.47;89.52
52935;BME280;38802;50.198;19.796;2022-09-30T02:30:32;95469.02;;;7.48;89.77
52935;BME280;38802;50.198;19.796;2022-09-30T02:33:03;95469.75;;;7.47;89.74
52935;BME280;38802;50.198;19.796;2022-09-30T02:35:35;95470.73;;;7.48;89.96
52935;BME280;38802;50.198;19.796;2022-09-30T02:38:08;95464.01;;;7.49;90.16
52935;BME280;38802;50.198;19.796;2022-09-30T02:40:40;95464.35;;;7.47;90.11
52935;BME280;38802;50.198;19.796;2022-09-30T02:43:10;95470.68;;;7.48;89.61
52935;BME280;38802;50.198;19.796;2022-09-30T02:48:37;95464.73;;;7.47;89.72
52935;BME280;38802;50.198;19.796;2022-09-30T02:51:11;95472.63;;;7.46;89.57
52935;BME280;38802;50.198;19.796;2022-09-30T02:53:44;95470.23;;;7.43;89.72
52935;BME280;38802;50.198;19.796;2022-09-30T02:58:44;95471.36;;;7.40;89.95
52935;BME280;38802;50.198;19.796;2022-09-30T03:01:12;95469.03;;;7.39;89.76
52935;BME280;38802;50.198;19.796;2022-09-30T03:03:54;95473.02;;;7.39;90.09
52935;BME280;38802;50.198;19.796;2022-09-30T03:06:23;95471.14;;;7.39;90.18
52935;BME280;38802;50.198;19.796;2022-09-30T03:08:52;95476.73;;;7.38;90.08
52935;BME280;38802;50.198;19.796;2022-09-30T03:11:24;95476.29;;;7.37;90.19
52935;BME280;38802;50.198;19.796;2022-09-30T03:19:28;95471.92;;;7.38;90.42
52935;BME280;38802;50.198;19.796;2022-09-30T03:37:38;95475.73;;;7.35;90.58
52935;BME280;38802;50.198;19.796;2022-09-30T03:40:27;95475.81;;;7.36;90.52
52935;BME280;38802;50.198;19.796;2022-09-30T03:43:34;95472.11;;;7.35;90.72
52935;BME280;38802;50.198;19.796;2022-09-30T03:45:57;95477.95;;;7.35;91.06
52935;BME280;38802;50.198;19.796;2022-09-30T03:48:28;95474.67;;;7.35;90.95
52935;BME280;38802;50.198;19.796;2022-09-30T03:50:58;95475.98;;;7.36;90.83
52935;BME280;38802;50.198;19.796;2022-09-30T03:53:28;95479.80;;;7.36;90.91
52935;BME280;38802;50.198;19.796;2022-09-30T03:55:56;95482.14;;;7.37;90.80
52935;BME280;38802;50.198;19.796;2022-09-30T03:58:24;95485.37;;;7.38;90.68
52935;BME280;38802;50.198;19.796;2022-09-30T04:00:52;95491.14;;;7.39;90.81
52935;BME280;38802;50.198;19.796;2022-09-30T04:03:21;95493.07;;;7.39;90.97
52935;BME280;38802;50.198;19.796;2022-09-30T04:05:50;95489.96;;;7.39;91.41
52935;BME280;38802;50.198;19.796;2022-09-30T04:08:18;95496.73;;;7.39;91.19
52935;BME280;38802;50.198;19.796;2022-09-30T04:10:46;95498.99;;;7.38;91.22
52935;BME280;38802;50.198;19.796;2022-09-30T04:13:14;95496.54;;;7.39;91.16
52935;BME280;38802;50.198;19.796;2022-09-30T04:15:43;95496.54;;;7.39;91.33
52935;BME280;38802;50.198;19.796;2022-09-30T04:18:11;95500.77;;;7.40;91.12
52935;BME280;38802;50.198;19.796;2022-09-30T04:20:39;95496.77;;;7.40;91.35
52935;BME280;38802;50.198;19.796;2022-09-30T04:23:07;95497.02;;;7.41;90.95
52935;BME280;38802;50.198;19.796;2022-09-30T04:25:35;95498.24;;;7.41;91.47
52935;BME280;38802;50.198;19.796;2022-09-30T04:28:04;95499.42;;;7.41;91.44
52935;BME280;38802;50.198;19.796;2022-09-30T04:30:32;95498.84;;;7.42;91.41
52935;BME280;38802;50.198;19.796;2022-09-30T04:33:00;95502.81;;;7.42;91.17
52935;BME280;38802;50.198;19.796;2022-09-30T04:35:28;95502.42;;;7.43;91.23
52935;BME280;38802;50.198;19.796;2022-09-30T04:37:56;95506.15;;;7.44;91.27
52935;BME280;38802;50.198;19.796;2022-09-30T04:40:24;95509.41;;;7.46;91.23
52935;BME280;38802;50.198;19.796;2022-09-30T04:42:54;95513.57;;;7.46;91.14
52935;BME280;38802;50.198;19.796;2022-09-30T04:45:24;95513.38;;;7.46;91.02
52935;BME280;38802;50.198;19.796;2022-09-30T04:47:53;95517.11;;;7.47;91.17
52935;BME280;38802;50.198;19.796;2022-09-30T04:50:21;95516.88;;;7.48;90.94
52935;BME280;38802;50.198;19.796;2022-09-30T04:52:50;95519.20;;;7.49;91.10
52935;BME280;38802;50.198;19.796;2022-09-30T04:55:18;95518.14;;;7.49;91.20
52935;BME280;38802;50.198;19.796;2022-09-30T04:57:46;95520.21;;;7.49;91.51
52935;BME280;38802;50.198;19.796;2022-09-30T05:00:16;95520.05;;;7.49;91.42
52935;BME280;38802;50.198;19.796;2022-09-30T05:02:44;95521.75;;;7.49;91.46
52935;BME280;38802;50.198;19.796;2022-09-30T05:05:12;95517.78;;;7.51;91.31
52935;BME280;38802;50.198;19.796;2022-09-30T05:07:41;95518.16;;;7.51;91.42
52935;BME280;38802;50.198;19.796;2022-09-30T05:10:09;95516.71;;;7.52;91.34
52935;BME280;38802;50.198;19.796;2022-09-30T05:12:38;95516.03;;;7.51;91.40
52935;BME280;38802;50.198;19.796;2022-09-30T05:15:08;95519.26;;;7.52;91.24
52935;BME280;38802;50.198;19.796;2022-09-30T05:17:36;95519.23;;;7.53;91.26
52935;BME280;38802;50.198;19.796;2022-09-30T05:20:04;95521.56;;;7.54;91.65
52935;BME280;38802;50.198;19.796;2022-09-30T05:22:37;95524.55;;;7.55;91.43
52935;BME280;38802;50.198;19.796;2022-09-30T05:25:05;95534.02;;;7.56;91.59
52935;BME280;38802;50.198;19.796;2022-09-30T05:27:34;95532.00;;;7.55;91.91
52935;BME280;38802;50.198;19.796;2022-09-30T05:30:02;95532.70;;;7.55;91.63
52935;BME280;38802;50.198;19.796;2022-09-30T05:32:30;95531.66;;;7.55;91.86
52935;BME280;38802;50.198;19.796;2022-09-30T05:34:58;95530.69;;;7.54;92.15
52935;BME280;38802;50.198;19.796;2022-09-30T05:37:26;95534.70;;;7.56;92.09
52935;BME280;38802;50.198;19.796;2022-09-30T05:39:54;95534.44;;;7.57;91.82
52935;BME280;38802;50.198;19.796;2022-09-30T05:42:22;95535.92;;;7.58;91.87
52935;BME280;38802;50.198;19.796;2022-09-30T05:44:51;95537.05;;;7.59;92.26
52935;BME280;38802;50.198;19.796;2022-09-30T05:47:19;95535.77;;;7.60;92.13
52935;BME280;38802;50.198;19.796;2022-09-30T05:49:47;95533.51;;;7.60;92.02
52935;BME280;38802;50.198;19.796;2022-09-30T05:52:19;95541.70;;;7.62;91.98
52935;BME280;38802;50.198;19.796;2022-09-30T05:54:49;95542.30;;;7.62;92.04
52935;BME280;38802;50.198;19.796;2022-09-30T05:57:17;95542.70;;;7.64;91.90
52935;BME280;38802;50.198;19.796;2022-09-30T05:59:45;95542.20;;;7.66;92.16
52935;BME280;38802;50.198;19.796;2022-09-30T06:02:14;95542.73;;;7.66;92.26
52935;BME280;38802;50.198;19.796;2022-09-30T06:04:42;95542.59;;;7.67;91.96
52935;BME280;38802;50.198;19.796;2022-09-30T06:07:10;95546.12;;;7.68;92.44
52935;BME280;38802;50.198;19.796;2022-09-30T06:09:38;95544.87;;;7.69;92.27
52935;BME280;38802;50.198;19.796;2022-09-30T06:12:06;95551.86;;;7.70;92.34
52935;BME280;38802;50.198;19.796;2022-09-30T06:14:35;95551.11;;;7.71;92.18
52935;BME280;38802;50.198;19.796;2022-09-30T06:17:03;95553.95;;;7.72;92.32
52935;BME280;38802;50.198;19.796;2022-09-30T06:19:33;95553.00;;;7.73;92.44
52935;BME280;38802;50.198;19.796;2022-09-30T06:22:01;95559.98;;;7.74;92.34
52935;BME280;38802;50.198;19.796;2022-09-30T06:24:29;95560.96;;;7.75;92.55
52935;BME280;38802;50.198;19.796;2022-09-30T06:26:57;95557.64;;;7.76;92.40
52935;BME280;38802;50.198;19.796;2022-09-30T06:29:25;95553.88;;;7.77;92.68
52935;BME280;38802;50.198;19.796;2022-09-30T06:31:53;95555.24;;;7.77;92.59
52935;BME280;38802;50.198;19.796;2022-09-30T06:34:22;95554.13;;;7.78;92.46
52935;BME280;38802;50.198;19.796;2022-09-30T06:36:50;95552.98;;;7.79;92.67
52935;BME280;38802;50.198;19.796;2022-09-30T06:39:18;95552.27;;;7.80;92.50
52935;BME280;38802;50.198;19.796;2022-09-30T06:41:47;95552.19;;;7.81;92.62
52935;BME280;38802;50.198;19.796;2022-09-30T06:44:24;95551.59;;;7.82;92.63
52935;BME280;38802;50.198;19.796;2022-09-30T06:46:52;95555.80;;;7.81;92.98
52935;BME280;38802;50.198;19.796;2022-09-30T06:49:21;95559.80;;;7.81;92.79
52935;BME280;38802;50.198;19.796;2022-09-30T06:51:49;95555.75;;;7.82;92.78
52935;BME280;38802;50.198;19.796;2022-09-30T06:54:18;95556.09;;;7.84;92.71
52935;BME280;38802;50.198;19.796;2022-09-30T06:56:48;95555.03;;;7.86;92.48
52935;BME280;38802;50.198;19.796;2022-09-30T06:59:16;95555.76;;;7.88;92.59
52935;BME280;38802;50.198;19.796;2022-09-30T07:01:44;95555.05;;;7.88;92.66
52935;BME280;38802;50.198;19.796;2022-09-30T07:04:13;95559.86;;;7.89;92.51
52935;BME280;38802;50.198;19.796;2022-09-30T07:06:41;95561.36;;;7.89;92.63
52935;BME280;38802;50.198;19.796;2022-09-30T07:09:09;95563.82;;;7.89;92.53
52935;BME280;38802;50.198;19.796;2022-09-30T07:11:38;95566.80;;;7.91;92.46
52935;BME280;38802;50.198;19.796;2022-09-30T07:14:06;95569.65;;;7.92;92.79
52935;BME280;38802;50.198;19.796;2022-09-30T07:16:35;95570.86;;;7.92;92.72
52935;BME280;38802;50.198;19.796;2022-09-30T07:19:03;95571.11;;;7.93;92.70
52935;BME280;38802;50.198;19.796;2022-09-30T07:21:31;95577.13;;;7.95;92.82
52935;BME280;38802;50.198;19.796;2022-09-30T07:24:00;95574.23;;;7.97;92.67
52935;BME280;38802;50.198;19.796;2022-09-30T07:26:28;95572.58;;;8.00;92.78
52935;BME280;38802;50.198;19.796;2022-09-30T07:28:56;95577.61;;;8.02;92.81
52935;BME280;38802;50.198;19.796;2022-09-30T07:31:27;95577.30;;;8.04;92.90
52935;BME280;38802;50.198;19.796;2022-09-30T07:34:02;95583.47;;;8.04;92.75
52935;BME280;38802;50.198;19.796;2022-09-30T07:36:30;95584.22;;;8.06;92.59
52935;BME280;38802;50.198;19.796;2022-09-30T07:39:01;95586.96;;;8.08;92.73
52935;BME280;38802;50.198;19.796;2022-09-30T07:41:34;95585.84;;;8.09;92.71
52935;BME280;38802;50.198;19.796;2022-09-30T07:44:03;95587.95;;;8.09;92.90
52935;BME280;38802;50.198;19.796;2022-09-30T07:46:33;95592.86;;;8.08;92.89
52935;BME280;38802;50.198;19.796;2022-09-30T07:49:03;95594.34;;;8.09;92.79
52935;BME280;38802;50.198;19.796;2022-09-30T07:51:34;95596.66;;;8.08;92.66
52935;BME280;38802;50.198;19.796;2022-09-30T07:54:12;95597.13;;;8.09;92.70
52935;BME280;38802;50.198;19.796;2022-09-30T07:56:41;95598.95;;;8.10;92.59
52935;BME280;38802;50.198;19.796;2022-09-30T07:59:32;95602.66;;;8.11;92.77
52935;BME280;38802;50.198;19.796;2022-09-30T08:02:01;95604.39;;;8.11;93.05
52935;BME280;38802;50.198;19.796;2022-09-30T08:04:29;95604.48;;;8.09;92.79
52935;BME280;38802;50.198;19.796;2022-09-30T08:06:58;95607.71;;;8.10;92.69
52935;BME280;38802;50.198;19.796;2022-09-30T08:09:27;95608.44;;;8.12;92.69
52935;BME280;38802;50.198;19.796;2022-09-30T08:11:57;95610.81;;;8.12;92.72
52935;BME280;38802;50.198;19.796;2022-09-30T08:14:26;95606.59;;;8.13;92.64
52935;BME280;38802;50.198;19.796;2022-09-30T08:16:54;95610.07;;;8.15;92.74
52935;BME280;38802;50.198;19.796;2022-09-30T08:19:26;95607.40;;;8.16;92.80
52935;BME280;38802;50.198;19.796;2022-09-30T08:21:54;95611.36;;;8.16;92.70
52935;BME280;38802;50.198;19.796;2022-09-30T08:24:23;95609.91;;;8.17;92.60
52935;BME280;38802;50.198;19.796;2022-09-30T08:26:52;95610.38;;;8.17;92.59
52935;BME280;38802;50.198;19.796;2022-09-30T08:29:20;95609.59;;;8.19;92.68
52935;BME280;38802;50.198;19.796;2022-09-30T08:32:08;95611.38;;;8.20;92.55
52935;BME280;38802;50.198;19.796;2022-09-30T08:34:36;95615.02;;;8.22;92.75
52935;BME280;38802;50.198;19.796;2022-09-30T08:37:04;95615.14;;;8.23;92.69
52935;BME280;38802;50.198;19.796;2022-09-30T08:39:36;95619.64;;;8.26;92.75
52935;BME280;38802;50.198;19.796;2022-09-30T08:47:59;95613.95;;;8.29;92.70
52935;BME280;38802;50.198;19.796;2022-09-30T08:53:13;95610.42;;;8.34;92.81
52935;BME280;38802;50.198;19.796;2022-09-30T08:55:43;95612.19;;;8.36;92.84
52935;BME280;38802;50.198;19.796;2022-09-30T08:58:25;95609.00;;;8.37;92.79
52935;BME280;38802;50.198;19.796;2022-09-30T09:00:55;95610.54;;;8.39;92.92
52935;BME280;38802;50.198;19.796;2022-09-30T09:03:27;95610.59;;;8.43;93.05
52935;BME280;38802;50.198;19.796;2022-09-30T09:11:06;95610.91;;;8.54;93.19
52935;BME280;38802;50.198;19.796;2022-09-30T09:19:15;95610.59;;;8.65;93.24
52935;BME280;38802;50.198;19.796;2022-09-30T09:21:57;95612.05;;;8.69;93.14
52935;BME280;38802;50.198;19.796;2022-09-30T09:24:49;95611.84;;;8.71;93.27
52935;BME280;38802;50.198;19.796;2022-09-30T09:27:18;95613.63;;;8.74;93.31
52935;BME280;38802;50.198;19.796;2022-09-30T09:30:06;95614.90;;;8.76;93.13
52935;BME280;38802;50.198;19.796;2022-09-30T09:32:35;95615.11;;;8.78;93.12
52935;BME280;38802;50.198;19.796;2022-09-30T09:35:14;95611.36;;;8.81;93.15
52935;BME280;38802;50.198;19.796;2022-09-30T09:38:02;95616.76;;;8.83;93.15
52935;BME280;38802;50.198;19.796;2022-09-30T09:40:55;95616.33;;;8.86;93.05
52935;BME280;38802;50.198;19.796;2022-09-30T09:48:41;95619.48;;;8.93;93.10
52935;BME280;38802;50.198;19.796;2022-09-30T09:51:14;95620.05;;;8.93;93.19
52935;BME280;38802;50.198;19.796;2022-09-30T09:53:46;95622.98;;;8.93;93.02
52935;BME280;38802;50.198;19.796;2022-09-30T09:56:17;95616.77;;;8.94;93.04
52935;BME280;38802;50.198;19.796;2022-09-30T10:01:33;95617.23;;;8.97;92.94
52935;BME280;38802;50.198;19.796;2022-09-30T10:04:09;95620.95;;;9.00;93.17
52935;BME280;38802;50.198;19.796;2022-09-30T10:14:38;95629.25;;;9.06;92.98
52935;BME280;38802;50.198;19.796;2022-09-30T10:17:19;95631.88;;;9.06;92.97
52935;BME280;38802;50.198;19.796;2022-09-30T10:19:49;95634.98;;;9.08;92.94
52935;BME280;38802;50.198;19.796;2022-09-30T10:22:22;95638.80;;;9.10;92.92
52935;BME280;38802;50.198;19.796;2022-09-30T10:24:52;95636.83;;;9.11;92.95
52935;BME280;38802;50.198;19.796;2022-09-30T10:27:35;95640.61;;;9.13;93.03
52935;BME280;38802;50.198;19.796;2022-09-30T10:30:04;95647.98;;;9.12;92.81
52935;BME280;38802;50.198;19.796;2022-09-30T10:32:32;95647.36;;;9.11;92.81
52935;BME280;38802;50.198;19.796;2022-09-30T10:35:14;95648.66;;;9.13;93.00
52935;BME280;38802;50.198;19.796;2022-09-30T10:37:51;95650.48;;;9.14;92.82
52935;BME280;38802;50.198;19.796;2022-09-30T10:40:20;95656.30;;;9.17;93.07
52935;BME280;38802;50.198;19.796;2022-09-30T10:42:50;95657.75;;;9.18;92.97
52935;BME280;38802;50.198;19.796;2022-09-30T10:45:28;95657.84;;;9.19;93.01
52935;BME280;38802;50.198;19.796;2022-09-30T10:47:59;95658.60;;;9.20;92.91
52935;BME280;38802;50.198;19.796;2022-09-30T10:50:30;95662.20;;;9.21;93.07
52935;BME280;38802;50.198;19.796;2022-09-30T10:52:59;95664.14;;;9.22;93.04
52935;BME280;38802;50.198;19.796;2022-09-30T10:58:21;95669.36;;;9.22;93.05
52935;BME280;38802;50.198;19.796;2022-09-30T11:03:51;95675.31;;;9.25;92.91
52935;BME280;38802;50.198;19.796;2022-09-30T11:06:21;95677.54;;;9.26;92.84
52935;BME280;38802;50.198;19.796;2022-09-30T11:08:56;95678.35;;;9.24;92.95
52935;BME280;38802;50.198;19.796;2022-09-30T11:11:27;95679.34;;;9.25;92.95
52935;BME280;38802;50.198;19.796;2022-09-30T11:14:36;95680.35;;;9.25;92.84
52935;BME280;38802;50.198;19.796;2022-09-30T11:19:35;95682.66;;;9.29;93.01
52935;BME280;38802;50.198;19.796;2022-09-30T11:30:11;95686.40;;;9.33;93.00
52935;BME280;38802;50.198;19.796;2022-09-30T11:38:07;95691.41;;;9.37;92.97
52935;BME280;38802;50.198;19.796;2022-09-30T11:43:13;95693.20;;;9.40;92.85
52935;BME280;38802;50.198;19.796;2022-09-30T11:51:21;95699.04;;;9.50;93.17
52935;BME280;38802;50.198;19.796;2022-09-30T11:56:26;95700.16;;;9.55;92.94
52935;BME280;38802;50.198;19.796;2022-09-30T11:58:59;95702.79;;;9.58;92.73
52935;BME280;38802;50.198;19.796;2022-09-30T12:01:31;95702.65;;;9.60;92.76
52935;BME280;38802;50.198;19.796;2022-09-30T12:06:34;95704.64;;;9.65;92.86
52935;BME280;38802;50.198;19.796;2022-09-30T12:09:17;95704.77;;;9.65;92.71
52935;BME280;38802;50.198;19.796;2022-09-30T12:11:49;95703.24;;;9.67;92.91
52935;BME280;38802;50.198;19.796;2022-09-30T12:14:24;95705.95;;;9.70;92.89
52935;BME280;38802;50.198;19.796;2022-09-30T12:16:53;95707.09;;;9.72;92.73
52935;BME280;38802;50.198;19.796;2022-09-30T12:19:31;95706.73;;;9.75;92.86
52935;BME280;38802;50.198;19.796;2022-09-30T12:24:37;95707.86;;;9.78;92.79
52935;BME280;38802;50.198;19.796;2022-09-30T12:27:40;95704.27;;;9.81;92.85
52935;BME280;38802;50.198;19.796;2022-09-30T12:30:04;95709.16;;;9.85;92.85
52935;BME280;38802;50.198;19.796;2022-09-30T12:38:08;95715.26;;;9.94;92.84
52935;BME280;38802;50.198;19.796;2022-09-30T12:48:37;95719.75;;;9.98;92.70
52935;BME280;38802;50.198;19.796;2022-09-30T12:51:08;95720.14;;;10.02;92.67
52935;BME280;38802;50.198;19.796;2022-09-30T12:53:38;95726.20;;;10.06;92.78
52935;BME280;38802;50.198;19.796;2022-09-30T12:56:08;95725.90;;;10.07;92.85
52935;BME280;38802;50.198;19.796;2022-09-30T12:58:40;95733.23;;;10.09;92.59
52935;BME280;38802;50.198;19.796;2022-09-30T13:11:43;95740.52;;;10.19;92.69
52935;BME280;38802;50.198;19.796;2022-09-30T13:19:40;95749.77;;;10.20;92.68
52935;BME280;38802;50.198;19.796;2022-09-30T13:27:45;95759.13;;;10.24;92.58
52935;BME280;38802;50.198;19.796;2022-09-30T13:40:57;95774.84;;;10.21;92.32
52935;BME280;38802;50.198;19.796;2022-09-30T13:46:21;95775.69;;;10.22;92.30
52935;BME280;38802;50.198;19.796;2022-09-30T13:48:53;95775.30;;;10.22;92.55
52935;BME280;38802;50.198;19.796;2022-09-30T13:51:26;95772.42;;;10.23;92.57
52935;BME280;38802;50.198;19.796;2022-09-30T13:53:56;95773.64;;;10.25;92.43
52935;BME280;38802;50.198;19.796;2022-09-30T13:56:29;95771.66;;;10.26;92.40
52935;BME280;38802;50.198;19.796;2022-09-30T14:12:43;95770.77;;;10.48;92.76
52935;BME280;38802;50.198;19.796;2022-09-30T14:21:04;95782.95;;;10.50;92.48
52935;BME280;38802;50.198;19.796;2022-09-30T14:23:37;95786.70;;;10.49;92.36
52935;BME280;38802;50.198;19.796;2022-09-30T14:28:57;95780.88;;;10.46;92.33
52935;BME280;38802;50.198;19.796;2022-09-30T14:31:29;95788.67;;;10.44;92.46
52935;BME280;38802;50.198;19.796;2022-09-30T14:34:00;95788.29;;;10.43;92.23
52935;BME280;38802;50.198;19.796;2022-09-30T14:36:29;95788.51;;;10.42;92.50
52935;BME280;38802;50.198;19.796;2022-09-30T14:38:58;95786.85;;;10.41;92.59
52935;BME280;38802;50.198;19.796;2022-09-30T14:41:30;95788.85;;;10.37;92.46
52935;BME280;38802;50.198;19.796;2022-09-30T14:43:59;95787.02;;;10.36;92.46
52935;BME280;38802;50.198;19.796;2022-09-30T14:46:36;95787.98;;;10.36;92.23
52935;BME280;38802;50.198;19.796;2022-09-30T14:49:07;95783.98;;;10.32;92.24
52935;BME280;38802;50.198;19.796;2022-09-30T14:51:37;95788.46;;;10.28;92.09
52935;BME280;38802;50.198;19.796;2022-09-30T14:54:17;95798.55;;;10.26;92.19
52935;BME280;38802;50.198;19.796;2022-09-30T14:56:46;95803.29;;;10.24;92.32
52935;BME280;38802;50.198;19.796;2022-09-30T14:59:16;95805.89;;;10.22;92.10
52935;BME280;38802;50.198;19.796;2022-09-30T15:01:46;95808.09;;;10.21;92.07
52935;BME280;38802;50.198;19.796;2022-09-30T15:04:16;95811.94;;;10.20;92.30
52935;BME280;38802;50.198;19.796;2022-09-30T15:06:46;95811.73;;;10.20;92.17
52935;BME280;38802;50.198;19.796;2022-09-30T15:09:21;95817.41;;;10.21;92.20
52935;BME280;38802;50.198;19.796;2022-09-30T15:11:49;95814.80;;;10.21;92.03
52935;BME280;38802;50.198;19.796;2022-09-30T15:14:18;95810.52;;;10.20;92.07
52935;BME280;38802;50.198;19.796;2022-09-30T15:16:54;95812.44;;;10.20;92.18
52935;BME280;38802;50.198;19.796;2022-09-30T15:19:24;95812.94;;;10.21;92.24
52935;BME280;38802;50.198;19.796;2022-09-30T15:21:53;95807.23;;;10.20;92.17
52935;BME280;38802;50.198;19.796;2022-09-30T15:24:23;95808.48;;;10.20;92.26
52935;BME280;38802;50.198;19.796;2022-09-30T15:26:52;95817.17;;;10.17;92.03
52935;BME280;38802;50.198;19.796;2022-09-30T15:29:22;95820.38;;;10.15;91.99
52935;BME280;38802;50.198;19.796;2022-09-30T15:31:58;95830.35;;;10.14;92.18
52935;BME280;38802;50.198;19.796;2022-09-30T15:34:28;95834.43;;;10.13;91.97
52935;BME280;38802;50.198;19.796;2022-09-30T15:36:58;95834.31;;;10.12;92.01
52935;BME280;38802;50.198;19.796;2022-09-30T15:39:32;95838.33;;;10.12;92.04
52935;BME280;38802;50.198;19.796;2022-09-30T15:42:26;95841.80;;;10.12;92.18
52935;BME280;38802;50.198;19.796;2022-09-30T15:44:55;95848.13;;;10.11;92.09
52935;BME280;38802;50.198;19.796;2022-09-30T15:47:26;95857.91;;;10.10;92.04
52935;BME280;38802;50.198;19.796;2022-09-30T15:49:55;95855.39;;;10.09;91.92
52935;BME280;38802;50.198;19.796;2022-09-30T15:52:34;95858.56;;;10.08;92.00
52935;BME280;38802;50.198;19.796;2022-09-30T15:57:52;95868.98;;;10.08;92.04
52935;BME280;38802;50.198;19.796;2022-09-30T16:00:33;95861.20;;;10.08;91.97
52935;BME280;38802;50.198;19.796;2022-09-30T16:05:46;95853.94;;;10.08;92.11
52935;BME280;38802;50.198;19.796;2022-09-30T16:08:22;95851.52;;;10.07;92.13
52935;BME280;38802;50.198;19.796;2022-09-30T16:10:52;95861.94;;;10.06;92.06
52935;BME280;38802;50.198;19.796;2022-09-30T16:13:23;95867.92;;;10.05;91.91
52935;BME280;38802;50.198;19.796;2022-09-30T16:15:53;95859.42;;;10.04;92.30
52935;BME280;38802;50.198;19.796;2022-09-30T16:18:27;95863.20;;;10.03;91.90
52935;BME280;38802;50.198;19.796;2022-09-30T16:21:03;95866.36;;;10.03;91.93
52935;BME280;38802;50.198;19.796;2022-09-30T16:23:36;95865.62;;;10.03;92.05
52935;BME280;38802;50.198;19.796;2022-09-30T16:26:11;95865.98;;;10.03;91.97
52935;BME280;38802;50.198;19.796;2022-09-30T16:28:40;95866.88;;;10.03;92.03
52935;BME280;38802;50.198;19.796;2022-09-30T16:31:08;95872.11;;;10.02;91.94
52935;BME280;38802;50.198;19.796;2022-09-30T16:33:38;95879.45;;;10.02;92.21
52935;BME280;38802;50.198;19.796;2022-09-30T16:36:08;95884.39;;;10.01;92.02
52935;BME280;38802;50.198;19.796;2022-09-30T16:38:37;95885.83;;;10.00;92.05
52935;BME280;38802;50.198;19.796;2022-09-30T16:41:07;95888.77;;;9.99;91.95
52935;BME280;38802;50.198;19.796;2022-09-30T16:43:36;95897.56;;;9.97;92.03
52935;BME280;38802;50.198;19.796;2022-09-30T16:46:07;95903.05;;;9.95;92.13